createdAt,value
2017-06-14T00:00:43.726Z,101298.72
2017-06-14T00:03:10.060Z,101301.59
2017-06-14T00:05:36.431Z,101314.33
2017-06-14T00:08:02.791Z,101317.92
2017-06-14T00:10:29.134Z,101302.04
2017-06-14T00:12:55.486Z,101298.55
2017-06-14T00:15:21.918Z,101291.66
2017-06-14T00:17:48.254Z,101302.27
2017-06-14T00:20:14.630Z,101301.33
2017-06-14T00:22:41.138Z,101287.09
2017-06-14T00:25:07.490Z,101301.63
2017-06-14T00:27:33.817Z,101304.83
2017-06-14T00:30:00.238Z,101290.83
2017-06-14T00:32:26.594Z,101301.45
2017-06-14T00:34:52.914Z,101296.56
2017-06-14T00:37:19.247Z,101293.17
2017-06-14T00:39:45.610Z,101293.09
2017-06-14T00:42:11.932Z,101293.03
2017-06-14T00:44:38.249Z,101303.52
2017-06-14T00:47:04.602Z,101307.65
2017-06-14T00:49:30.938Z,101306.66
2017-06-14T00:51:57.303Z,101298.19
2017-06-14T00:54:23.643Z,101305.15
2017-06-14T00:56:49.994Z,101300.50
2017-06-14T00:59:16.343Z,101297.77
2017-06-14T01:01:42.790Z,101309.63
2017-06-14T01:04:09.140Z,101302.50
2017-06-14T01:06:35.487Z,101302.28
2017-06-14T01:09:01.838Z,101307.87
2017-06-14T01:11:28.279Z,101311.09
2017-06-14T01:13:54.660Z,101312.16
2017-06-14T01:16:21.013Z,101315.88
2017-06-14T01:18:47.369Z,101316.88
2017-06-14T01:21:13.728Z,101309.23
2017-06-14T01:23:40.072Z,101306.89
2017-06-14T01:26:06.425Z,101297.22
2017-06-14T01:28:32.747Z,101291.32
2017-06-14T01:30:59.191Z,101295.79
2017-06-14T01:33:25.539Z,101289.12
2017-06-14T01:35:51.893Z,101298.05
2017-06-14T01:38:18.268Z,101295.95
2017-06-14T01:40:44.671Z,101300.22
2017-06-14T01:43:11.002Z,101296.99
2017-06-14T01:45:37.406Z,101299.57
2017-06-14T01:48:03.796Z,101292.50
2017-06-14T01:50:30.179Z,101288.52
2017-06-14T01:52:56.505Z,101290.00
2017-06-14T01:55:22.849Z,101296.55
2017-06-14T01:57:49.207Z,101288.34
2017-06-14T02:00:15.548Z,101287.31
2017-06-14T02:02:41.904Z,101290.11
2017-06-14T02:05:08.257Z,101283.07
2017-06-14T02:07:34.647Z,101277.08
2017-06-14T02:10:00.993Z,101273.34
2017-06-14T02:12:27.319Z,101280.78
2017-06-14T02:14:53.667Z,101266.91
2017-06-14T02:17:20.025Z,101275.59
2017-06-14T02:19:46.345Z,101270.38
2017-06-14T02:22:12.683Z,101270.83
2017-06-14T02:24:39.032Z,101263.77
2017-06-14T02:27:06.618Z,101267.11
2017-06-14T02:29:32.934Z,101267.09
2017-06-14T02:31:59.263Z,101271.42
2017-06-14T02:34:25.635Z,101269.64
2017-06-14T02:36:51.946Z,101279.52
2017-06-14T02:39:18.315Z,101276.34
2017-06-14T02:41:44.679Z,101275.88
2017-06-14T02:44:11.047Z,101271.39
2017-06-14T02:46:37.369Z,101263.17
2017-06-14T02:49:04.034Z,101268.99
2017-06-14T02:51:30.363Z,101271.86
2017-06-14T02:53:56.714Z,101269.62
2017-06-14T02:56:23.060Z,101278.39
2017-06-14T02:58:49.405Z,101286.62
2017-06-14T03:01:15.755Z,101289.39
2017-06-14T03:03:42.065Z,101289.91
2017-06-14T03:06:08.461Z,101292.11
2017-06-14T03:08:34.775Z,101285.57
2017-06-14T03:11:01.114Z,101286.05
2017-06-14T03:13:27.450Z,101286.58
2017-06-14T03:15:53.783Z,101285.72
2017-06-14T03:18:20.158Z,101283.34
2017-06-14T03:20:52.481Z,101285.84
2017-06-14T03:23:18.840Z,101297.95
2017-06-14T03:25:45.198Z,101297.03
2017-06-14T03:28:11.514Z,101298.37
2017-06-14T03:30:37.838Z,101297.38
2017-06-14T03:33:04.158Z,101295.50
2017-06-14T03:35:30.497Z,101301.42
2017-06-14T03:37:56.896Z,101314.91
2017-06-14T03:40:23.221Z,101309.87
2017-06-14T03:42:49.577Z,101310.09
2017-06-14T03:45:15.917Z,101326.38
2017-06-14T03:47:42.319Z,101329.90
2017-06-14T03:50:08.644Z,101325.67
2017-06-14T03:52:34.985Z,101325.00
2017-06-14T03:55:01.317Z,101321.86
2017-06-14T03:57:27.696Z,101322.03
2017-06-14T03:59:54.018Z,101330.45
2017-06-14T04:02:20.333Z,101325.27
2017-06-14T04:04:46.687Z,101327.02
2017-06-14T04:07:13.072Z,101324.80
2017-06-14T04:09:39.475Z,101325.55
2017-06-14T04:12:05.836Z,101329.68
2017-06-14T04:14:32.163Z,101326.66
2017-06-14T04:16:58.593Z,101325.86
2017-06-14T04:19:24.910Z,101326.87
2017-06-14T04:21:51.248Z,101321.36
2017-06-14T04:24:17.611Z,101328.58
2017-06-14T04:26:43.994Z,101331.30
2017-06-14T04:29:10.342Z,101338.30
2017-06-14T04:31:36.707Z,101334.56
2017-06-14T04:34:03.060Z,101343.05
2017-06-14T04:36:29.405Z,101346.28
2017-06-14T04:38:55.726Z,101345.39
2017-06-14T04:41:22.072Z,101339.91
2017-06-14T04:43:48.385Z,101340.17
2017-06-14T04:46:14.755Z,101339.89
2017-06-14T04:48:41.102Z,101350.77
2017-06-14T04:51:07.521Z,101347.75
2017-06-14T04:53:33.941Z,101349.77
2017-06-14T04:56:01.148Z,101343.86
2017-06-14T04:58:27.479Z,101346.06
2017-06-14T05:00:53.822Z,101338.83
2017-06-14T05:03:20.189Z,101327.25
2017-06-14T05:05:46.557Z,101330.65
2017-06-14T05:08:17.672Z,101340.38
2017-06-14T05:10:44.017Z,101340.67
2017-06-14T05:13:11.165Z,101344.14
2017-06-14T05:15:37.517Z,101335.83
2017-06-14T05:18:03.862Z,101337.55
2017-06-14T05:20:30.323Z,101333.68
2017-06-14T05:22:56.642Z,101323.07
2017-06-14T05:25:22.977Z,101323.12
2017-06-14T05:27:49.329Z,101325.80
2017-06-14T05:30:15.676Z,101322.65
2017-06-14T05:32:42.457Z,101322.00
2017-06-14T05:35:08.868Z,101329.73
2017-06-14T05:37:35.214Z,101333.92
2017-06-14T05:40:01.550Z,101333.66
2017-06-14T05:42:27.882Z,101343.52
2017-06-14T05:44:54.224Z,101340.78
2017-06-14T05:47:20.559Z,101330.73
2017-06-14T05:49:46.880Z,101329.99
2017-06-14T05:52:13.233Z,101332.84
2017-06-14T05:54:39.580Z,101341.06
2017-06-14T05:57:05.926Z,101344.27
2017-06-14T05:59:32.259Z,101342.05
2017-06-14T06:01:58.594Z,101337.38
2017-06-14T06:04:24.909Z,101327.97
2017-06-14T06:06:51.256Z,101325.16
2017-06-14T06:09:17.588Z,101328.05
2017-06-14T06:11:43.933Z,101330.36
2017-06-14T06:14:10.272Z,101322.68
2017-06-14T06:16:36.606Z,101325.30
2017-06-14T06:19:02.932Z,101320.25
2017-06-14T06:21:29.234Z,101326.41
2017-06-14T06:23:55.604Z,101325.50
2017-06-14T06:26:21.927Z,101326.97
2017-06-14T06:28:48.250Z,101315.34
2017-06-14T06:31:14.562Z,101309.23
2017-06-14T06:33:40.877Z,101322.92
2017-06-14T06:36:07.239Z,101322.77
2017-06-14T06:38:33.583Z,101317.73
2017-06-14T06:40:59.918Z,101313.78
2017-06-14T06:43:26.226Z,101311.20
2017-06-14T06:45:52.634Z,101309.00
2017-06-14T06:48:18.992Z,101319.92
2017-06-14T06:50:45.338Z,101324.02
2017-06-14T06:53:11.665Z,101322.87
2017-06-14T06:55:38.015Z,101318.43
2017-06-14T06:58:04.365Z,101315.44
2017-06-14T07:00:30.685Z,101319.16
2017-06-14T07:02:57.060Z,101315.99
2017-06-14T07:05:23.414Z,101316.72
2017-06-14T07:07:49.742Z,101319.09
2017-06-14T07:10:16.089Z,101319.48
2017-06-14T07:12:42.429Z,101314.90
2017-06-14T07:15:08.750Z,101317.73
2017-06-14T07:17:35.074Z,101320.06
2017-06-14T07:20:01.386Z,101318.58
2017-06-14T07:22:27.741Z,101321.23
2017-06-14T07:24:54.112Z,101320.00
2017-06-14T07:27:20.422Z,101320.03
2017-06-14T07:29:46.736Z,101319.80
2017-06-14T07:32:13.082Z,101317.28
2017-06-14T07:34:39.431Z,101307.41
2017-06-14T07:37:05.813Z,101301.97
2017-06-14T07:39:32.152Z,101309.30
2017-06-14T07:41:58.508Z,101306.17
2017-06-14T07:44:24.854Z,101307.80
2017-06-14T07:46:51.169Z,101319.30
2017-06-14T07:49:17.530Z,101315.15
2017-06-14T07:51:43.848Z,101313.25
2017-06-14T07:54:10.178Z,101321.87
2017-06-14T07:56:36.498Z,101322.08
2017-06-14T07:59:02.853Z,101327.83
2017-06-14T08:01:29.205Z,101324.91
2017-06-14T08:03:55.548Z,101321.81
2017-06-14T08:06:21.888Z,101330.77
2017-06-14T08:08:48.241Z,101321.87
2017-06-14T08:11:14.587Z,101314.73
2017-06-14T08:13:40.923Z,101316.97
2017-06-14T08:16:07.245Z,101317.17
2017-06-14T08:18:34.447Z,101321.23
2017-06-14T08:21:00.852Z,101323.80
2017-06-14T08:23:27.177Z,101313.67
2017-06-14T08:25:53.642Z,101308.28
2017-06-14T08:28:19.993Z,101301.94
2017-06-14T08:30:46.338Z,101296.26
2017-06-14T08:33:12.703Z,101304.27
2017-06-14T08:35:39.065Z,101301.03
2017-06-14T08:38:05.424Z,101285.75
2017-06-14T08:40:31.766Z,101293.01
2017-06-14T08:42:58.105Z,101296.98
2017-06-14T08:45:24.426Z,101294.48
2017-06-14T08:47:50.749Z,101293.52
2017-06-14T08:50:17.085Z,101291.05
2017-06-14T08:52:43.394Z,101285.34
2017-06-14T08:55:09.736Z,101283.96
2017-06-14T08:57:36.095Z,101283.96
2017-06-14T09:00:02.448Z,101281.20
2017-06-14T09:02:28.798Z,101278.48
2017-06-14T09:04:55.129Z,101276.02
2017-06-14T09:07:21.455Z,101281.92
2017-06-14T09:09:47.782Z,101280.19
2017-06-14T09:12:14.118Z,101272.62
2017-06-14T09:14:40.442Z,101275.50
2017-06-14T09:17:06.786Z,101277.84
2017-06-14T09:19:33.128Z,101270.59
2017-06-14T09:21:59.472Z,101270.02
2017-06-14T09:24:25.801Z,101266.78
2017-06-14T09:26:52.151Z,101258.72
2017-06-14T09:29:18.479Z,101261.27
2017-06-14T09:31:44.969Z,101267.70
2017-06-14T09:34:11.311Z,101264.22
2017-06-14T09:36:37.679Z,101262.32
2017-06-14T09:39:04.046Z,101261.06
2017-06-14T09:41:30.499Z,101257.84
2017-06-14T09:43:56.810Z,101254.48
2017-06-14T09:46:23.133Z,101254.24
2017-06-14T09:48:49.462Z,101246.34
2017-06-14T09:51:15.799Z,101249.22
2017-06-14T09:53:42.140Z,101246.09
2017-06-14T09:56:08.507Z,101250.44
2017-06-14T09:58:34.856Z,101241.19
2017-06-14T10:01:01.190Z,101237.17
2017-06-14T10:03:27.520Z,101235.41
2017-06-14T10:05:53.850Z,101244.45
2017-06-14T10:08:20.154Z,101240.42
2017-06-14T10:10:46.485Z,101241.01
2017-06-14T10:13:12.830Z,101237.27
2017-06-14T10:15:39.178Z,101232.14
2017-06-14T10:18:05.502Z,101226.38
2017-06-14T10:20:31.846Z,101224.09
2017-06-14T10:22:58.187Z,101224.34
2017-06-14T10:25:24.506Z,101222.88
2017-06-14T10:27:50.900Z,101220.02
2017-06-14T10:30:17.238Z,101219.44
2017-06-14T10:32:43.592Z,101207.99
2017-06-14T10:35:09.977Z,101197.75
2017-06-14T10:37:36.347Z,101199.87
2017-06-14T10:40:02.719Z,101198.16
2017-06-14T10:42:29.046Z,101195.81
2017-06-14T10:44:55.428Z,101195.61
2017-06-14T10:47:21.790Z,101191.20
2017-06-14T10:49:48.129Z,101191.17
2017-06-14T10:52:14.462Z,101198.09
2017-06-14T10:54:40.819Z,101197.33
2017-06-14T10:57:07.145Z,101190.36
2017-06-14T10:59:33.497Z,101196.70
2017-06-14T11:01:59.864Z,101192.27
2017-06-14T11:04:26.229Z,101188.02
2017-06-14T11:06:52.574Z,101189.92
2017-06-14T11:09:18.941Z,101189.20
2017-06-14T11:11:45.266Z,101186.59
2017-06-14T11:14:11.594Z,101171.42
2017-06-14T11:16:37.921Z,101166.51
2017-06-14T11:19:04.235Z,101167.84
2017-06-14T11:21:30.539Z,101160.70
2017-06-14T11:23:56.890Z,101161.45
2017-06-14T11:26:23.239Z,101148.45
2017-06-14T11:28:49.613Z,101153.06
2017-06-14T11:31:15.986Z,101154.69
2017-06-14T11:33:42.303Z,101156.44
2017-06-14T11:36:08.659Z,101150.39
2017-06-14T11:38:35.000Z,101149.16
2017-06-14T11:41:01.327Z,101146.52
2017-06-14T11:43:27.693Z,101141.64
2017-06-14T11:45:54.015Z,101143.84
2017-06-14T11:48:20.369Z,101141.13
2017-06-14T11:50:46.726Z,101147.30
2017-06-14T11:53:13.060Z,101142.16
2017-06-14T11:55:39.446Z,101143.47
2017-06-14T11:58:05.790Z,101144.58
2017-06-14T12:00:32.157Z,101139.23
2017-06-14T12:02:58.520Z,101141.28
2017-06-14T12:05:24.844Z,101132.06
2017-06-14T12:07:51.192Z,101128.66
2017-06-14T12:10:17.533Z,101132.11
2017-06-14T12:12:43.993Z,101128.91
2017-06-14T12:15:10.358Z,101124.77
2017-06-14T12:17:36.709Z,101122.97
2017-06-14T12:20:03.088Z,101135.04
2017-06-14T12:22:29.454Z,101133.08
2017-06-14T12:24:55.799Z,101125.69
2017-06-14T12:27:22.174Z,101118.27
2017-06-14T12:29:48.529Z,101114.39
2017-06-14T12:32:14.879Z,101118.52
2017-06-14T12:34:41.271Z,101114.77
2017-06-14T12:37:07.619Z,101111.64
2017-06-14T12:39:33.941Z,101110.61
2017-06-14T12:42:00.292Z,101110.98
2017-06-14T12:44:26.634Z,101106.77
2017-06-14T12:46:52.967Z,101107.94
2017-06-14T12:49:19.335Z,101111.43
2017-06-14T12:51:45.725Z,101108.17
2017-06-14T12:54:12.085Z,101109.27
2017-06-14T12:56:38.441Z,101114.30
2017-06-14T12:59:04.765Z,101108.67
2017-06-14T13:01:31.154Z,101110.84
2017-06-14T13:03:57.536Z,101110.02
2017-06-14T13:06:23.888Z,101104.56
2017-06-14T13:08:50.220Z,101104.95
2017-06-14T13:11:16.593Z,101095.27
2017-06-14T13:13:42.935Z,101085.84
2017-06-14T13:16:09.268Z,101082.63
2017-06-14T13:18:35.632Z,101087.27
2017-06-14T13:21:01.950Z,101091.73
2017-06-14T13:23:28.300Z,101083.31
2017-06-14T13:25:54.709Z,101083.22
2017-06-14T13:28:21.089Z,101084.53
2017-06-14T13:30:47.453Z,101082.89
2017-06-14T13:33:13.810Z,101080.31
2017-06-14T13:35:40.142Z,101074.66
2017-06-14T13:38:06.493Z,101075.38
2017-06-14T13:40:32.841Z,101061.57
2017-06-14T13:42:59.237Z,101068.81
2017-06-14T13:45:25.607Z,101062.95
2017-06-14T13:47:51.938Z,101059.41
2017-06-14T13:50:18.289Z,101063.46
2017-06-14T13:52:44.652Z,101056.55
2017-06-14T13:55:11.014Z,101051.59
2017-06-14T13:57:37.370Z,101051.87
2017-06-14T14:00:03.754Z,101057.55
2017-06-14T14:02:30.088Z,101041.50
2017-06-14T14:04:56.497Z,101034.02
2017-06-14T14:07:22.884Z,101042.61
2017-06-14T14:09:49.364Z,101039.67
2017-06-14T14:12:16.173Z,101037.83
2017-06-14T14:14:42.562Z,101032.23
2017-06-14T14:17:09.040Z,101037.00
2017-06-14T14:19:35.429Z,101041.45
2017-06-14T14:22:01.795Z,101032.52
2017-06-14T14:24:28.135Z,101033.80
2017-06-14T14:26:54.485Z,101028.33
2017-06-14T14:29:20.854Z,101026.95
2017-06-14T14:31:47.190Z,101031.27
2017-06-14T14:34:13.526Z,101019.78
2017-06-14T14:36:39.873Z,101017.56
2017-06-14T14:39:06.226Z,101015.63
2017-06-14T14:41:32.589Z,101008.89
2017-06-14T14:43:59.127Z,101010.02
2017-06-14T14:46:25.602Z,101006.09
2017-06-14T14:48:51.944Z,100994.84
2017-06-14T14:51:18.270Z,100998.91
2017-06-14T14:53:44.605Z,100994.11
2017-06-14T14:56:10.954Z,100992.61
2017-06-14T14:58:37.366Z,100989.56
2017-06-14T15:01:03.742Z,100988.56
2017-06-14T15:03:30.097Z,100989.14
2017-06-14T15:05:56.500Z,100992.34
2017-06-14T15:08:22.899Z,100979.80
2017-06-14T15:10:49.275Z,100979.19
2017-06-14T15:13:16.270Z,100980.20
2017-06-14T15:15:42.754Z,100973.88
2017-06-14T15:18:09.114Z,100963.47
2017-06-14T15:20:35.486Z,100966.53
2017-06-14T15:23:01.860Z,100962.56
2017-06-14T15:25:28.214Z,100961.86
2017-06-14T15:27:54.578Z,100963.66
2017-06-14T15:30:20.935Z,100964.81
2017-06-14T15:32:47.272Z,100968.30
2017-06-14T15:35:13.685Z,100960.94
2017-06-14T15:37:40.601Z,100952.05
2017-06-14T15:40:06.943Z,100953.03
2017-06-14T15:42:33.873Z,100947.61
2017-06-14T15:45:00.558Z,100946.59
2017-06-14T15:47:27.507Z,100944.98
2017-06-14T15:49:53.920Z,100938.92
2017-06-14T15:52:20.717Z,100941.81
2017-06-14T15:54:47.090Z,100943.02
2017-06-14T15:57:13.451Z,100941.75
2017-06-14T15:59:39.804Z,100936.81
2017-06-14T16:02:06.469Z,100934.78
2017-06-14T16:04:33.276Z,100938.61
2017-06-14T16:06:59.749Z,100932.93
2017-06-14T16:09:26.082Z,100937.36
2017-06-14T16:11:52.458Z,100933.93
2017-06-14T16:14:18.848Z,100925.41
2017-06-14T16:16:45.185Z,100923.95
2017-06-14T16:19:12.047Z,100916.89
2017-06-14T16:21:38.765Z,100920.34
2017-06-14T16:24:06.523Z,100920.27
2017-06-14T16:26:33.037Z,100916.09
2017-06-14T16:28:59.462Z,100913.95
2017-06-14T16:31:25.843Z,100913.33
2017-06-14T16:33:52.213Z,100911.23
2017-06-14T16:36:18.641Z,100904.00
2017-06-14T16:38:45.084Z,100904.65
2017-06-14T16:41:11.436Z,100904.77
2017-06-14T16:43:37.812Z,100895.13
2017-06-14T16:46:04.606Z,100898.33
2017-06-14T16:48:30.933Z,100891.95
2017-06-14T16:50:57.278Z,100892.98
2017-06-14T16:53:23.651Z,100900.72
2017-06-14T16:55:50.009Z,100899.42
2017-06-14T16:58:16.369Z,100897.33
2017-06-14T17:00:42.702Z,100904.27
2017-06-14T17:03:09.054Z,100895.36
2017-06-14T17:05:35.396Z,100896.08
2017-06-14T17:08:02.045Z,100892.84
2017-06-14T17:10:28.389Z,100888.37
2017-06-14T17:12:54.726Z,100888.94
2017-06-14T17:15:21.111Z,100891.41
2017-06-14T17:17:47.429Z,100885.56
2017-06-14T17:20:13.758Z,100889.56
2017-06-14T17:22:40.092Z,100883.24
2017-06-14T17:25:06.434Z,100882.54
2017-06-14T17:27:32.775Z,100880.31
2017-06-14T17:29:59.087Z,100888.39
2017-06-14T17:32:25.425Z,100887.95
2017-06-14T17:34:51.833Z,100882.59
2017-06-14T17:37:18.172Z,100884.56
2017-06-14T17:39:44.496Z,100881.20
2017-06-14T17:42:10.832Z,100877.80
2017-06-14T17:44:37.200Z,100880.33
2017-06-14T17:47:03.511Z,100879.99
2017-06-14T17:49:29.913Z,100877.80
2017-06-14T17:51:56.269Z,100877.35
2017-06-14T17:54:22.614Z,100872.91
2017-06-14T17:56:48.973Z,100879.65
2017-06-14T17:59:15.307Z,100874.42
2017-06-14T18:01:41.635Z,100870.73
2017-06-14T18:04:08.006Z,100876.38
2017-06-14T18:06:34.370Z,100874.41
2017-06-14T18:09:00.783Z,100876.34
2017-06-14T18:11:27.149Z,100871.28
2017-06-14T18:13:54.165Z,100866.48
2017-06-14T18:16:20.530Z,100873.52
2017-06-14T18:18:47.194Z,100866.33
2017-06-14T18:21:13.819Z,100871.73
2017-06-14T18:23:40.168Z,100872.15
2017-06-14T18:26:06.589Z,100869.59
2017-06-14T18:28:33.008Z,100868.24
2017-06-14T18:30:59.383Z,100870.03
2017-06-14T18:33:25.700Z,100879.73
2017-06-14T18:35:52.084Z,100872.02
2017-06-14T18:38:18.387Z,100869.55
2017-06-14T18:40:44.715Z,100867.12
2017-06-14T18:43:11.070Z,100869.98
2017-06-14T18:45:37.378Z,100872.25
2017-06-14T18:48:03.726Z,100870.36
2017-06-14T18:50:30.123Z,100866.30
2017-06-14T18:52:56.453Z,100861.83
2017-06-14T18:55:22.842Z,100865.25
2017-06-14T18:57:49.236Z,100859.93
2017-06-14T19:00:15.609Z,100861.95
2017-06-14T19:02:42.048Z,100865.48
2017-06-14T19:05:08.413Z,100868.39
2017-06-14T19:07:34.754Z,100864.34
2017-06-14T19:10:01.149Z,100870.21
2017-06-14T19:12:27.517Z,100870.31
2017-06-14T19:14:53.920Z,100870.60
2017-06-14T19:17:20.297Z,100867.54
2017-06-14T19:19:46.713Z,100867.45
2017-06-14T19:22:13.290Z,100868.90
2017-06-14T19:24:39.623Z,100862.30
2017-06-14T19:27:05.986Z,100860.55
2017-06-14T19:29:32.427Z,100861.31
2017-06-14T19:31:58.828Z,100870.34
2017-06-14T19:34:25.194Z,100872.56
2017-06-14T19:36:51.537Z,100871.45
2017-06-14T19:39:17.924Z,100886.73
2017-06-14T19:41:44.395Z,100889.00
2017-06-14T19:44:10.756Z,100890.30
2017-06-14T19:46:37.159Z,100886.58
2017-06-14T19:49:03.525Z,100884.91
2017-06-14T19:51:29.927Z,100887.34
2017-06-14T19:53:56.279Z,100889.87
2017-06-14T19:56:22.628Z,100886.31
2017-06-14T19:58:49.896Z,100884.44
2017-06-14T20:01:16.240Z,100888.37
2017-06-14T20:03:42.585Z,100894.30
2017-06-14T20:06:09.282Z,100899.05
2017-06-14T20:08:35.674Z,100897.00
2017-06-14T20:11:02.074Z,100898.41
2017-06-14T20:13:28.492Z,100893.02
2017-06-14T20:15:54.874Z,100897.92
2017-06-14T20:20:52.671Z,100899.52
2017-06-14T20:23:19.125Z,100898.17
2017-06-14T20:25:45.496Z,100900.73
2017-06-14T20:28:11.878Z,100895.63
2017-06-14T20:30:38.291Z,100894.98
2017-06-14T20:33:04.723Z,100898.47
2017-06-14T20:35:31.093Z,100897.94
2017-06-14T20:37:57.481Z,100894.04
2017-06-14T20:40:23.843Z,100901.72
2017-06-14T20:42:50.175Z,100894.54
2017-06-14T20:45:16.554Z,100894.69
2017-06-14T20:47:42.879Z,100887.30
2017-06-14T20:50:09.217Z,100893.44
2017-06-14T20:52:35.560Z,100895.91
2017-06-14T20:55:01.929Z,100898.14
2017-06-14T20:57:28.265Z,100896.98
2017-06-14T20:59:54.593Z,100897.06
2017-06-14T21:02:20.929Z,100907.41
2017-06-14T21:04:59.436Z,100900.82
2017-06-14T21:07:25.799Z,100901.39
2017-06-14T21:09:52.166Z,100900.00
2017-06-14T21:12:18.581Z,100893.52
2017-06-14T21:14:44.943Z,100898.18
2017-06-14T21:17:11.302Z,100903.09
2017-06-14T21:19:37.647Z,100900.59
2017-06-14T21:22:04.033Z,100902.94
2017-06-14T21:24:30.540Z,100906.61
2017-06-14T21:26:56.901Z,100900.95
2017-06-14T21:29:23.253Z,100901.33
2017-06-14T21:31:49.583Z,100897.00
2017-06-14T21:34:15.957Z,100902.26
2017-06-14T21:36:42.841Z,100900.69
2017-06-14T21:39:09.255Z,100907.88
2017-06-14T21:41:35.618Z,100904.83
2017-06-14T21:44:04.068Z,100905.27
2017-06-14T21:46:30.654Z,100904.13
2017-06-14T21:48:57.013Z,100914.20
2017-06-14T21:51:23.382Z,100908.34
2017-06-14T21:53:49.760Z,100907.58
2017-06-14T21:56:16.126Z,100908.89
2017-06-14T21:58:42.468Z,100904.91
2017-06-14T22:01:08.822Z,100911.97
2017-06-14T22:03:35.126Z,100908.44
2017-06-14T22:06:02.154Z,100914.14
2017-06-14T22:08:28.490Z,100909.83
2017-06-14T22:10:54.793Z,100910.95
2017-06-14T22:13:21.507Z,100909.94
2017-06-14T22:15:47.920Z,100913.95
2017-06-14T22:18:14.255Z,100912.03
2017-06-14T22:20:40.622Z,100910.17
2017-06-14T22:23:06.961Z,100911.02
2017-06-14T22:25:33.301Z,100906.48
2017-06-14T22:27:59.634Z,100915.19
2017-06-14T22:30:26.363Z,100909.08
2017-06-14T22:32:53.154Z,100911.73
2017-06-14T22:35:19.543Z,100910.31
2017-06-14T22:37:45.914Z,100910.12
2017-06-14T22:40:12.725Z,100906.05
2017-06-14T22:42:39.090Z,100912.02
2017-06-14T22:45:05.441Z,100908.96
2017-06-14T22:47:31.817Z,100905.66
2017-06-14T22:49:58.236Z,100910.73
2017-06-14T22:52:24.962Z,100903.83
2017-06-14T22:54:51.295Z,100900.56
2017-06-14T22:57:18.086Z,100900.77
2017-06-14T22:59:44.432Z,100899.84
2017-06-14T23:02:11.045Z,100896.53
2017-06-14T23:04:37.464Z,100899.57
2017-06-14T23:07:03.795Z,100894.67
2017-06-14T23:09:30.127Z,100898.95
2017-06-14T23:11:56.520Z,100897.33
2017-06-14T23:14:22.859Z,100888.95
2017-06-14T23:16:49.197Z,100888.09
2017-06-14T23:19:16.098Z,100886.38
2017-06-14T23:21:42.819Z,100883.59
2017-06-14T23:24:09.552Z,100886.70
2017-06-14T23:26:36.416Z,100892.97
2017-06-14T23:29:03.330Z,100882.62
2017-06-14T23:31:29.991Z,100883.30
2017-06-14T23:33:56.701Z,100872.50
2017-06-14T23:36:23.425Z,100884.50
2017-06-14T23:38:50.337Z,100884.07
2017-06-14T23:41:17.168Z,100881.31
2017-06-14T23:43:43.681Z,100872.29
2017-06-14T23:46:10.023Z,100871.31
2017-06-14T23:48:36.365Z,100869.72
2017-06-14T23:51:02.743Z,100867.56
2017-06-14T23:53:29.084Z,100871.70
2017-06-14T23:55:55.404Z,100864.08
2017-06-14T23:58:21.855Z,100872.48
